sensor_id;sensor_type;location;lat;lon;timestamp;temperature;humidity
6206;DHT22;3136;48.788;9.772;2022-10-16T00:00:56;14.40;90.60
6206;DHT22;3136;48.788;9.772;2022-10-16T00:03:22;14.40;90.80
6206;DHT22;3136;48.788;9.772;2022-10-16T00:05:48;14.40;90.40
6206;DHT22;3136;48.788;9.772;2022-10-16T00:08:13;14.40;90.40
6206;DHT22;3136;48.788;9.772;2022-10-16T00:10:39;14.30;90.40
6206;DHT22;3136;48.788;9.772;2022-10-16T00:13:06;14.30;90.40
6206;DHT22;3136;48.788;9.772;2022-10-16T00:15:34;14.30;90.60
6206;DHT22;3136;48.788;9.772;2022-10-16T00:18:04;14.30;90.60
6206;DHT22;3136;48.788;9.772;2022-10-16T00:20:33;14.30;90.80
6206;DHT22;3136;48.788;9.772;2022-10-16T00:22:59;14.30;91.00
6206;DHT22;3136;48.788;9.772;2022-10-16T00:25:25;14.30;91.30
6206;DHT22;3136;48.788;9.772;2022-10-16T00:27:50;14.30;91.60
6206;DHT22;3136;48.788;9.772;2022-10-16T00:30:16;14.30;91.70
6206;DHT22;3136;48.788;9.772;2022-10-16T00:32:41;14.30;91.80
6206;DHT22;3136;48.788;9.772;2022-10-16T00:35:07;14.20;91.80
6206;DHT22;3136;48.788;9.772;2022-10-16T00:37:32;14.30;91.90
6206;DHT22;3136;48.788;9.772;2022-10-16T00:39:58;14.30;91.80
6206;DHT22;3136;48.788;9.772;2022-10-16T00:42:24;14.30;91.90
6206;DHT22;3136;48.788;9.772;2022-10-16T00:44:50;14.30;91.80
6206;DHT22;3136;48.788;9.772;2022-10-16T00:47:28;14.30;91.70
6206;DHT22;3136;48.788;9.772;2022-10-16T00:49:59;14.20;91.40
6206;DHT22;3136;48.788;9.772;2022-10-16T00:52:27;14.20;91.10
6206;DHT22;3136;48.788;9.772;2022-10-16T00:54:53;14.20;90.70
6206;DHT22;3136;48.788;9.772;2022-10-16T00:57:19;14.10;90.50
6206;DHT22;3136;48.788;9.772;2022-10-16T00:59:45;14.10;90.60
6206;DHT22;3136;48.788;9.772;2022-10-16T01:02:14;14.00;90.10
6206;DHT22;3136;48.788;9.772;2022-10-16T01:04:51;14.00;90.00
6206;DHT22;3136;48.788;9.772;2022-10-16T01:10:21;14.00;90.40
6206;DHT22;3136;48.788;9.772;2022-10-16T01:13:03;13.90;90.40
6206;DHT22;3136;48.788;9.772;2022-10-16T01:16:00;13.90;90.50
6206;DHT22;3136;48.788;9.772;2022-10-16T01:18:32;13.90;90.60
6206;DHT22;3136;48.788;9.772;2022-10-16T01:21:08;13.90;90.80
6206;DHT22;3136;48.788;9.772;2022-10-16T01:24:05;13.80;90.80
6206;DHT22;3136;48.788;9.772;2022-10-16T01:29:18;13.80;90.90
6206;DHT22;3136;48.788;9.772;2022-10-16T01:31:51;13.80;91.20
6206;DHT22;3136;48.788;9.772;2022-10-16T01:34:25;13.80;91.40
6206;DHT22;3136;48.788;9.772;2022-10-16T01:37:08;13.80;91.40
6206;DHT22;3136;48.788;9.772;2022-10-16T01:39:38;13.70;91.40
6206;DHT22;3136;48.788;9.772;2022-10-16T01:42:09;13.80;91.60
6206;DHT22;3136;48.788;9.772;2022-10-16T01:44:37;13.70;91.70
6206;DHT22;3136;48.788;9.772;2022-10-16T01:47:04;13.90;92.00
6206;DHT22;3136;48.788;9.772;2022-10-16T01:49:33;13.70;92.20
6206;DHT22;3136;48.788;9.772;2022-10-16T01:52:02;13.70;92.30
6206;DHT22;3136;48.788;9.772;2022-10-16T01:54:31;13.70;92.80
6206;DHT22;3136;48.788;9.772;2022-10-16T01:56:58;13.70;92.70
6206;DHT22;3136;48.788;9.772;2022-10-16T01:59:26;13.70;92.90
6206;DHT22;3136;48.788;9.772;2022-10-16T02:02:00;13.70;93.10
6206;DHT22;3136;48.788;9.772;2022-10-16T02:04:33;13.70;93.00
6206;DHT22;3136;48.788;9.772;2022-10-16T02:06:59;13.80;93.10
6206;DHT22;3136;48.788;9.772;2022-10-16T02:09:25;13.70;93.40
6206;DHT22;3136;48.788;9.772;2022-10-16T02:11:54;13.70;93.50
6206;DHT22;3136;48.788;9.772;2022-10-16T02:14:21;13.70;93.60
6206;DHT22;3136;48.788;9.772;2022-10-16T02:16:47;13.70;93.50
6206;DHT22;3136;48.788;9.772;2022-10-16T02:19:15;13.70;93.50
6206;DHT22;3136;48.788;9.772;2022-10-16T02:21:59;13.60;93.60
6206;DHT22;3136;48.788;9.772;2022-10-16T02:30:18;13.70;94.60
6206;DHT22;3136;48.788;9.772;2022-10-16T02:32:46;13.70;94.60
6206;DHT22;3136;48.788;9.772;2022-10-16T02:35:14;13.50;94.50
6206;DHT22;3136;48.788;9.772;2022-10-16T02:37:40;13.70;94.60
6206;DHT22;3136;48.788;9.772;2022-10-16T02:40:07;13.70;94.60
6206;DHT22;3136;48.788;9.772;2022-10-16T02:42:35;13.60;94.60
6206;DHT22;3136;48.788;9.772;2022-10-16T02:45:01;13.70;94.60
6206;DHT22;3136;48.788;9.772;2022-10-16T02:47:26;13.60;94.70
6206;DHT22;3136;48.788;9.772;2022-10-16T02:49:52;14.10;95.20
6206;DHT22;3136;48.788;9.772;2022-10-16T02:52:18;13.70;95.30
6206;DHT22;3136;48.788;9.772;2022-10-16T02:54:43;13.70;95.50
6206;DHT22;3136;48.788;9.772;2022-10-16T02:57:09;13.70;95.70
6206;DHT22;3136;48.788;9.772;2022-10-16T02:59:34;13.70;95.80
6206;DHT22;3136;48.788;9.772;2022-10-16T03:02:00;13.70;96.00
6206;DHT22;3136;48.788;9.772;2022-10-16T03:04:25;13.70;96.30
6206;DHT22;3136;48.788;9.772;2022-10-16T03:06:51;13.80;96.50
6206;DHT22;3136;48.788;9.772;2022-10-16T03:09:16;13.80;96.60
6206;DHT22;3136;48.788;9.772;2022-10-16T03:11:42;13.80;96.70
6206;DHT22;3136;48.788;9.772;2022-10-16T03:14:07;13.80;96.80
6206;DHT22;3136;48.788;9.772;2022-10-16T03:16:33;13.80;97.00
6206;DHT22;3136;48.788;9.772;2022-10-16T03:18:58;14.20;97.30
6206;DHT22;3136;48.788;9.772;2022-10-16T03:21:24;13.80;97.20
6206;DHT22;3136;48.788;9.772;2022-10-16T03:23:50;13.80;97.20
6206;DHT22;3136;48.788;9.772;2022-10-16T03:26:15;13.80;97.20
6206;DHT22;3136;48.788;9.772;2022-10-16T03:28:41;13.80;97.20
6206;DHT22;3136;48.788;9.772;2022-10-16T03:31:06;13.80;97.10
6206;DHT22;3136;48.788;9.772;2022-10-16T03:33:33;13.80;97.20
6206;DHT22;3136;48.788;9.772;2022-10-16T03:35:59;14.00;97.30
6206;DHT22;3136;48.788;9.772;2022-10-16T03:38:25;13.80;97.20
6206;DHT22;3136;48.788;9.772;2022-10-16T03:40:51;13.80;97.20
6206;DHT22;3136;48.788;9.772;2022-10-16T03:43:16;13.80;97.20
6206;DHT22;3136;48.788;9.772;2022-10-16T03:45:42;13.80;97.10
6206;DHT22;3136;48.788;9.772;2022-10-16T03:48:08;13.70;97.00
6206;DHT22;3136;48.788;9.772;2022-10-16T03:50:33;13.70;97.00
6206;DHT22;3136;48.788;9.772;2022-10-16T03:52:59;13.70;97.00
6206;DHT22;3136;48.788;9.772;2022-10-16T03:55:24;13.70;97.20
6206;DHT22;3136;48.788;9.772;2022-10-16T03:57:50;13.70;96.80
6206;DHT22;3136;48.788;9.772;2022-10-16T04:00:15;13.60;96.60
6206;DHT22;3136;48.788;9.772;2022-10-16T04:02:41;13.60;96.40
6206;DHT22;3136;48.788;9.772;2022-10-16T04:05:07;13.60;96.00
6206;DHT22;3136;48.788;9.772;2022-10-16T04:07:32;13.50;95.80
6206;DHT22;3136;48.788;9.772;2022-10-16T04:09:58;13.50;95.70
6206;DHT22;3136;48.788;9.772;2022-10-16T04:12:25;13.40;95.60
6206;DHT22;3136;48.788;9.772;2022-10-16T04:14:51;13.40;95.50
6206;DHT22;3136;48.788;9.772;2022-10-16T04:17:16;13.40;95.50
6206;DHT22;3136;48.788;9.772;2022-10-16T04:19:42;13.40;95.50
6206;DHT22;3136;48.788;9.772;2022-10-16T04:22:08;13.40;95.60
6206;DHT22;3136;48.788;9.772;2022-10-16T04:24:33;13.40;95.50
6206;DHT22;3136;48.788;9.772;2022-10-16T04:26:59;13.30;95.20
6206;DHT22;3136;48.788;9.772;2022-10-16T04:29:24;13.30;95.00
6206;DHT22;3136;48.788;9.772;2022-10-16T04:31:50;13.20;95.00
6206;DHT22;3136;48.788;9.772;2022-10-16T04:34:15;13.20;95.20
6206;DHT22;3136;48.788;9.772;2022-10-16T04:36:41;13.20;95.30
6206;DHT22;3136;48.788;9.772;2022-10-16T04:39:06;13.20;95.30
6206;DHT22;3136;48.788;9.772;2022-10-16T04:41:32;13.10;95.20
6206;DHT22;3136;48.788;9.772;2022-10-16T04:43:58;13.10;95.40
6206;DHT22;3136;48.788;9.772;2022-10-16T04:46:23;13.10;95.60
6206;DHT22;3136;48.788;9.772;2022-10-16T04:48:49;13.10;95.80
6206;DHT22;3136;48.788;9.772;2022-10-16T04:51:14;13.00;95.80
6206;DHT22;3136;48.788;9.772;2022-10-16T04:53:40;13.20;95.90
6206;DHT22;3136;48.788;9.772;2022-10-16T04:56:05;13.10;95.90
6206;DHT22;3136;48.788;9.772;2022-10-16T04:58:31;13.10;96.00
6206;DHT22;3136;48.788;9.772;2022-10-16T05:00:57;13.10;96.10
6206;DHT22;3136;48.788;9.772;2022-10-16T05:03:22;13.20;96.40
6206;DHT22;3136;48.788;9.772;2022-10-16T05:05:48;13.10;96.50
6206;DHT22;3136;48.788;9.772;2022-10-16T05:08:15;13.10;96.60
6206;DHT22;3136;48.788;9.772;2022-10-16T05:10:42;13.20;96.70
6206;DHT22;3136;48.788;9.772;2022-10-16T05:13:08;13.10;96.80
6206;DHT22;3136;48.788;9.772;2022-10-16T05:15:34;13.10;96.90
6206;DHT22;3136;48.788;9.772;2022-10-16T05:17:59;13.20;97.00
6206;DHT22;3136;48.788;9.772;2022-10-16T05:20:25;13.20;97.00
6206;DHT22;3136;48.788;9.772;2022-10-16T05:22:50;13.10;97.10
6206;DHT22;3136;48.788;9.772;2022-10-16T05:25:16;13.10;97.20
6206;DHT22;3136;48.788;9.772;2022-10-16T05:27:42;13.10;97.20
6206;DHT22;3136;48.788;9.772;2022-10-16T05:30:08;13.10;97.20
6206;DHT22;3136;48.788;9.772;2022-10-16T05:32:34;13.10;97.30
6206;DHT22;3136;48.788;9.772;2022-10-16T05:34:59;13.10;97.30
6206;DHT22;3136;48.788;9.772;2022-10-16T05:37:27;13.10;97.40
6206;DHT22;3136;48.788;9.772;2022-10-16T05:39:52;13.10;97.50
6206;DHT22;3136;48.788;9.772;2022-10-16T05:42:18;13.30;97.60
6206;DHT22;3136;48.788;9.772;2022-10-16T05:44:44;13.10;97.60
6206;DHT22;3136;48.788;9.772;2022-10-16T05:47:11;13.20;97.70
6206;DHT22;3136;48.788;9.772;2022-10-16T05:49:37;13.10;97.80
6206;DHT22;3136;48.788;9.772;2022-10-16T05:52:03;13.20;98.00
6206;DHT22;3136;48.788;9.772;2022-10-16T05:54:29;13.20;98.50
6206;DHT22;3136;48.788;9.772;2022-10-16T05:56:54;13.20;98.30
6206;DHT22;3136;48.788;9.772;2022-10-16T05:59:20;13.20;98.40
6206;DHT22;3136;48.788;9.772;2022-10-16T06:01:45;13.20;98.50
6206;DHT22;3136;48.788;9.772;2022-10-16T06:04:11;13.20;98.60
6206;DHT22;3136;48.788;9.772;2022-10-16T06:06:37;13.20;98.60
6206;DHT22;3136;48.788;9.772;2022-10-16T06:09:03;13.20;98.50
6206;DHT22;3136;48.788;9.772;2022-10-16T06:11:31;13.60;98.70
6206;DHT22;3136;48.788;9.772;2022-10-16T06:13:59;13.20;98.50
6206;DHT22;3136;48.788;9.772;2022-10-16T06:16:27;13.20;98.50
6206;DHT22;3136;48.788;9.772;2022-10-16T06:18:54;13.20;98.50
6206;DHT22;3136;48.788;9.772;2022-10-16T06:21:21;13.20;98.60
6206;DHT22;3136;48.788;9.772;2022-10-16T06:23:47;13.30;98.70
6206;DHT22;3136;48.788;9.772;2022-10-16T06:26:15;13.30;98.80
6206;DHT22;3136;48.788;9.772;2022-10-16T06:28:41;13.30;99.20
6206;DHT22;3136;48.788;9.772;2022-10-16T06:31:09;13.30;99.50
6206;DHT22;3136;48.788;9.772;2022-10-16T06:33:36;13.40;99.80
6206;DHT22;3136;48.788;9.772;2022-10-16T06:36:20;13.50;99.90
6206;DHT22;3136;48.788;9.772;2022-10-16T06:38:46;13.50;99.90
6206;DHT22;3136;48.788;9.772;2022-10-16T06:41:14;13.50;99.90
6206;DHT22;3136;48.788;9.772;2022-10-16T06:43:40;13.50;99.90
6206;DHT22;3136;48.788;9.772;2022-10-16T06:46:07;13.50;99.90
6206;DHT22;3136;48.788;9.772;2022-10-16T06:48:34;13.60;99.90
6206;DHT22;3136;48.788;9.772;2022-10-16T06:53:28;13.70;99.90
6206;DHT22;3136;48.788;9.772;2022-10-16T06:55:54;13.80;99.90
6206;DHT22;3136;48.788;9.772;2022-10-16T06:58:19;13.80;99.90
6206;DHT22;3136;48.788;9.772;2022-10-16T07:00:45;15.40;99.90
6206;DHT22;3136;48.788;9.772;2022-10-16T07:03:11;13.90;99.90
6206;DHT22;3136;48.788;9.772;2022-10-16T07:05:41;14.00;99.90
6206;DHT22;3136;48.788;9.772;2022-10-16T07:08:08;14.10;99.90
6206;DHT22;3136;48.788;9.772;2022-10-16T07:10:33;14.20;99.90
6206;DHT22;3136;48.788;9.772;2022-10-16T07:12:59;14.30;99.90
6206;DHT22;3136;48.788;9.772;2022-10-16T07:15:25;14.40;99.90
6206;DHT22;3136;48.788;9.772;2022-10-16T07:17:51;14.40;99.90
6206;DHT22;3136;48.788;9.772;2022-10-16T07:20:17;14.50;99.90
6206;DHT22;3136;48.788;9.772;2022-10-16T07:22:42;14.60;99.90
6206;DHT22;3136;48.788;9.772;2022-10-16T07:25:08;14.60;99.90
6206;DHT22;3136;48.788;9.772;2022-10-16T07:27:34;14.80;99.90
6206;DHT22;3136;48.788;9.772;2022-10-16T07:30:00;15.00;99.90
6206;DHT22;3136;48.788;9.772;2022-10-16T07:32:26;15.10;99.90
6206;DHT22;3136;48.788;9.772;2022-10-16T07:34:52;15.30;99.90
6206;DHT22;3136;48.788;9.772;2022-10-16T07:37:18;15.40;99.90
6206;DHT22;3136;48.788;9.772;2022-10-16T07:39:44;15.40;99.90
6206;DHT22;3136;48.788;9.772;2022-10-16T07:42:09;15.40;99.90
6206;DHT22;3136;48.788;9.772;2022-10-16T07:44:35;15.40;99.90
6206;DHT22;3136;48.788;9.772;2022-10-16T07:47:00;15.50;99.90
6206;DHT22;3136;48.788;9.772;2022-10-16T07:49:26;15.50;99.90
6206;DHT22;3136;48.788;9.772;2022-10-16T07:51:51;15.50;99.90
6206;DHT22;3136;48.788;9.772;2022-10-16T07:54:17;15.50;99.90
6206;DHT22;3136;48.788;9.772;2022-10-16T07:56:42;15.60;99.90
6206;DHT22;3136;48.788;9.772;2022-10-16T07:59:08;15.60;99.90
6206;DHT22;3136;48.788;9.772;2022-10-16T08:01:34;15.70;99.90
6206;DHT22;3136;48.788;9.772;2022-10-16T08:03:59;15.80;99.90
6206;DHT22;3136;48.788;9.772;2022-10-16T08:06:25;15.80;99.90
6206;DHT22;3136;48.788;9.772;2022-10-16T08:08:50;15.90;99.90
6206;DHT22;3136;48.788;9.772;2022-10-16T08:11:16;15.90;99.90
6206;DHT22;3136;48.788;9.772;2022-10-16T08:13:42;15.90;99.90
6206;DHT22;3136;48.788;9.772;2022-10-16T08:16:08;15.90;99.90
6206;DHT22;3136;48.788;9.772;2022-10-16T08:18:36;16.00;99.90
6206;DHT22;3136;48.788;9.772;2022-10-16T08:21:02;15.90;99.90
6206;DHT22;3136;48.788;9.772;2022-10-16T08:23:28;15.90;99.90
6206;DHT22;3136;48.788;9.772;2022-10-16T08:25:54;16.00;99.90
6206;DHT22;3136;48.788;9.772;2022-10-16T08:28:20;16.00;99.90
6206;DHT22;3136;48.788;9.772;2022-10-16T08:30:46;16.00;99.90
6206;DHT22;3136;48.788;9.772;2022-10-16T08:33:11;16.00;99.90
6206;DHT22;3136;48.788;9.772;2022-10-16T08:35:37;16.10;99.90
6206;DHT22;3136;48.788;9.772;2022-10-16T08:38:04;16.10;99.90
6206;DHT22;3136;48.788;9.772;2022-10-16T08:40:31;16.20;99.90
6206;DHT22;3136;48.788;9.772;2022-10-16T08:43:10;16.20;99.90
6206;DHT22;3136;48.788;9.772;2022-10-16T08:48:45;16.40;99.90
6206;DHT22;3136;48.788;9.772;2022-10-16T08:51:23;16.50;99.90
6206;DHT22;3136;48.788;9.772;2022-10-16T08:53:56;16.60;99.90
6206;DHT22;3136;48.788;9.772;2022-10-16T08:56:23;16.80;99.90
6206;DHT22;3136;48.788;9.772;2022-10-16T08:58:50;16.70;99.90
6206;DHT22;3136;48.788;9.772;2022-10-16T09:01:19;16.90;99.90
6206;DHT22;3136;48.788;9.772;2022-10-16T09:06:42;17.10;99.90
6206;DHT22;3136;48.788;9.772;2022-10-16T09:09:21;17.20;99.90
6206;DHT22;3136;48.788;9.772;2022-10-16T09:20:31;17.80;96.90
6206;DHT22;3136;48.788;9.772;2022-10-16T09:25:43;17.40;95.20
6206;DHT22;3136;48.788;9.772;2022-10-16T09:28:09;17.40;95.80
6206;DHT22;3136;48.788;9.772;2022-10-16T09:30:35;17.30;95.70
6206;DHT22;3136;48.788;9.772;2022-10-16T09:33:02;17.30;95.50
6206;DHT22;3136;48.788;9.772;2022-10-16T09:35:38;17.30;95.30
6206;DHT22;3136;48.788;9.772;2022-10-16T09:38:05;17.40;95.00
6206;DHT22;3136;48.788;9.772;2022-10-16T09:40:36;17.50;95.70
6206;DHT22;3136;48.788;9.772;2022-10-16T09:43:27;17.50;96.20
6206;DHT22;3136;48.788;9.772;2022-10-16T09:48:21;17.70;97.20
6206;DHT22;3136;48.788;9.772;2022-10-16T09:51:01;17.90;97.40
6206;DHT22;3136;48.788;9.772;2022-10-16T09:53:39;18.10;97.60
6206;DHT22;3136;48.788;9.772;2022-10-16T09:56:05;18.30;96.70
6206;DHT22;3136;48.788;9.772;2022-10-16T09:58:32;18.30;94.70
6206;DHT22;3136;48.788;9.772;2022-10-16T10:00:59;18.50;92.80
6206;DHT22;3136;48.788;9.772;2022-10-16T10:03:34;18.60;91.40
6206;DHT22;3136;48.788;9.772;2022-10-16T10:06:07;18.70;89.20
6206;DHT22;3136;48.788;9.772;2022-10-16T10:08:39;18.80;86.40
6206;DHT22;3136;48.788;9.772;2022-10-16T10:11:05;18.90;83.50
6206;DHT22;3136;48.788;9.772;2022-10-16T10:13:31;19.10;77.30
6206;DHT22;3136;48.788;9.772;2022-10-16T10:15:56;19.30;74.70
6206;DHT22;3136;48.788;9.772;2022-10-16T10:18:22;19.20;62.60
6206;DHT22;3136;48.788;9.772;2022-10-16T10:21:03;19.20;58.30
6206;DHT22;3136;48.788;9.772;2022-10-16T10:23:31;19.40;56.50
6206;DHT22;3136;48.788;9.772;2022-10-16T10:36:49;19.60;47.00
6206;DHT22;3136;48.788;9.772;2022-10-16T10:39:27;19.80;48.60
6206;DHT22;3136;48.788;9.772;2022-10-16T10:47:14;20.80;20.60
6206;DHT22;3136;48.788;9.772;2022-10-16T10:50:05;21.00;6.50
6206;DHT22;3136;48.788;9.772;2022-10-16T11:04:00;21.90;1.00
6206;DHT22;3136;48.788;9.772;2022-10-16T11:12:11;23.40;1.00
6206;DHT22;3136;48.788;9.772;2022-10-16T11:14:49;24.30;1.00
6206;DHT22;3136;48.788;9.772;2022-10-16T11:17:35;25.50;1.00
6206;DHT22;3136;48.788;9.772;2022-10-16T11:20:26;26.40;1.00
6206;DHT22;3136;48.788;9.772;2022-10-16T11:22:58;26.90;1.00
6206;DHT22;3136;48.788;9.772;2022-10-16T11:25:30;27.40;1.00
6206;DHT22;3136;48.788;9.772;2022-10-16T11:30:34;28.90;99.90
6206;DHT22;3136;48.788;9.772;2022-10-16T11:33:32;29.30;99.90
6206;DHT22;3136;48.788;9.772;2022-10-16T11:36:28;28.90;99.90
6206;DHT22;3136;48.788;9.772;2022-10-16T11:49:33;31.50;99.90
6206;DHT22;3136;48.788;9.772;2022-10-16T11:52:25;31.90;99.90
6206;DHT22;3136;48.788;9.772;2022-10-16T11:55:21;31.50;99.90
6206;DHT22;3136;48.788;9.772;2022-10-16T11:57:54;32.20;99.90
6206;DHT22;3136;48.788;9.772;2022-10-16T12:00:29;32.40;99.90
6206;DHT22;3136;48.788;9.772;2022-10-16T12:03:08;32.60;99.90
6206;DHT22;3136;48.788;9.772;2022-10-16T12:08:21;33.90;99.90
6206;DHT22;3136;48.788;9.772;2022-10-16T12:10:47;34.00;99.90
6206;DHT22;3136;48.788;9.772;2022-10-16T12:16:26;33.40;99.90
6206;DHT22;3136;48.788;9.772;2022-10-16T12:19:13;33.20;99.90
6206;DHT22;3136;48.788;9.772;2022-10-16T12:21:39;33.10;99.90
6206;DHT22;3136;48.788;9.772;2022-10-16T12:24:06;32.20;99.90
6206;DHT22;3136;48.788;9.772;2022-10-16T12:26:42;31.00;99.90
6206;DHT22;3136;48.788;9.772;2022-10-16T12:29:22;30.60;99.90
6206;DHT22;3136;48.788;9.772;2022-10-16T12:31:50;31.50;99.90
6206;DHT22;3136;48.788;9.772;2022-10-16T12:34:26;32.10;99.90
6206;DHT22;3136;48.788;9.772;2022-10-16T12:36:53;32.80;99.90
6206;DHT22;3136;48.788;9.772;2022-10-16T12:39:24;33.20;99.90
6206;DHT22;3136;48.788;9.772;2022-10-16T12:42:02;34.10;99.90
6206;DHT22;3136;48.788;9.772;2022-10-16T12:44:33;34.10;99.90
6206;DHT22;3136;48.788;9.772;2022-10-16T12:46:59;34.50;99.90
6206;DHT22;3136;48.788;9.772;2022-10-16T12:51:54;34.80;99.90
6206;DHT22;3136;48.788;9.772;2022-10-16T12:54:21;34.20;99.90
6206;DHT22;3136;48.788;9.772;2022-10-16T13:05:26;34.20;99.90
6206;DHT22;3136;48.788;9.772;2022-10-16T13:08:21;33.90;99.90
6206;DHT22;3136;48.788;9.772;2022-10-16T13:19:06;33.40;99.90
6206;DHT22;3136;48.788;9.772;2022-10-16T13:21:47;33.90;99.90
6206;DHT22;3136;48.788;9.772;2022-10-16T13:27:20;33.50;99.90
6206;DHT22;3136;48.788;9.772;2022-10-16T13:29:54;31.10;99.90
6206;DHT22;3136;48.788;9.772;2022-10-16T13:32:26;29.40;99.90
6206;DHT22;3136;48.788;9.772;2022-10-16T13:34:51;28.00;99.90
6206;DHT22;3136;48.788;9.772;2022-10-16T13:37:21;26.80;99.90
6206;DHT22;3136;48.788;9.772;2022-10-16T13:39:47;25.80;99.90
6206;DHT22;3136;48.788;9.772;2022-10-16T13:42:27;25.20;1.00
6206;DHT22;3136;48.788;9.772;2022-10-16T13:44:54;24.80;99.90
6206;DHT22;3136;48.788;9.772;2022-10-16T13:47:24;24.70;1.00
6206;DHT22;3136;48.788;9.772;2022-10-16T13:52:25;25.40;1.00
6206;DHT22;3136;48.788;9.772;2022-10-16T13:54:50;26.70;1.00
6206;DHT22;3136;48.788;9.772;2022-10-16T13:57:16;28.00;99.90
6206;DHT22;3136;48.788;9.772;2022-10-16T13:59:42;29.00;99.90
6206;DHT22;3136;48.788;9.772;2022-10-16T14:04:54;30.90;99.90
6206;DHT22;3136;48.788;9.772;2022-10-16T14:07:28;31.60;99.90
6206;DHT22;3136;48.788;9.772;2022-10-16T14:09:55;31.70;99.90
6206;DHT22;3136;48.788;9.772;2022-10-16T14:12:22;31.30;99.90
6206;DHT22;3136;48.788;9.772;2022-10-16T14:14:53;30.50;99.90
6206;DHT22;3136;48.788;9.772;2022-10-16T14:17:25;29.70;99.90
6206;DHT22;3136;48.788;9.772;2022-10-16T14:19:54;29.10;99.90
6206;DHT22;3136;48.788;9.772;2022-10-16T14:22:40;28.40;99.90
6206;DHT22;3136;48.788;9.772;2022-10-16T14:27:44;27.50;99.90
6206;DHT22;3136;48.788;9.772;2022-10-16T14:30:15;27.20;99.90
6206;DHT22;3136;48.788;9.772;2022-10-16T14:32:54;26.50;99.90
6206;DHT22;3136;48.788;9.772;2022-10-16T14:37:54;24.40;1.00
6206;DHT22;3136;48.788;9.772;2022-10-16T14:40:23;23.70;1.00
6206;DHT22;3136;48.788;9.772;2022-10-16T14:42:49;23.20;1.00
6206;DHT22;3136;48.788;9.772;2022-10-16T14:45:22;22.80;1.00
6206;DHT22;3136;48.788;9.772;2022-10-16T14:47:52;22.40;99.90
6206;DHT22;3136;48.788;9.772;2022-10-16T14:50:19;22.10;99.90
6206;DHT22;3136;48.788;9.772;2022-10-16T14:52:44;21.90;82.50
6206;DHT22;3136;48.788;9.772;2022-10-16T14:55:10;21.70;45.40
6206;DHT22;3136;48.788;9.772;2022-10-16T14:57:37;21.50;99.90
6206;DHT22;3136;48.788;9.772;2022-10-16T15:00:16;21.30;99.90
6206;DHT22;3136;48.788;9.772;2022-10-16T15:02:42;21.20;91.70
6206;DHT22;3136;48.788;9.772;2022-10-16T15:05:20;21.10;27.00
6206;DHT22;3136;48.788;9.772;2022-10-16T15:07:47;20.70;94.40
6206;DHT22;3136;48.788;9.772;2022-10-16T15:10:15;20.50;99.90
6206;DHT22;3136;48.788;9.772;2022-10-16T15:12:41;20.40;1.00
6206;DHT22;3136;48.788;9.772;2022-10-16T15:17:48;20.00;99.90
6206;DHT22;3136;48.788;9.772;2022-10-16T15:20:13;20.00;1.00
6206;DHT22;3136;48.788;9.772;2022-10-16T15:22:39;19.80;1.00
6206;DHT22;3136;48.788;9.772;2022-10-16T15:28:16;19.70;1.00
6206;DHT22;3136;48.788;9.772;2022-10-16T15:30:42;19.50;47.10
6206;DHT22;3136;48.788;9.772;2022-10-16T15:33:15;19.40;99.90
6206;DHT22;3136;48.788;9.772;2022-10-16T15:35:41;19.30;1.00
6206;DHT22;3136;48.788;9.772;2022-10-16T15:38:11;19.30;1.00
6206;DHT22;3136;48.788;9.772;2022-10-16T15:40:37;19.30;1.00
6206;DHT22;3136;48.788;9.772;2022-10-16T15:43:03;19.30;1.00
6206;DHT22;3136;48.788;9.772;2022-10-16T15:45:29;19.20;1.00
6206;DHT22;3136;48.788;9.772;2022-10-16T15:47:54;19.20;1.00
6206;DHT22;3136;48.788;9.772;2022-10-16T15:50:20;19.10;1.00
6206;DHT22;3136;48.788;9.772;2022-10-16T15:52:45;19.00;1.00
6206;DHT22;3136;48.788;9.772;2022-10-16T15:55:13;19.00;1.00
6206;DHT22;3136;48.788;9.772;2022-10-16T15:57:39;19.00;1.00
6206;DHT22;3136;48.788;9.772;2022-10-16T16:00:12;18.80;1.00
6206;DHT22;3136;48.788;9.772;2022-10-16T16:02:39;18.80;1.00
6206;DHT22;3136;48.788;9.772;2022-10-16T16:05:05;18.70;1.00
6206;DHT22;3136;48.788;9.772;2022-10-16T16:07:34;18.60;1.00
6206;DHT22;3136;48.788;9.772;2022-10-16T16:10:00;18.60;1.00
6206;DHT22;3136;48.788;9.772;2022-10-16T16:12:26;18.50;99.90
6206;DHT22;3136;48.788;9.772;2022-10-16T16:14:51;18.40;99.90
6206;DHT22;3136;48.788;9.772;2022-10-16T16:17:17;18.30;99.90
6206;DHT22;3136;48.788;9.772;2022-10-16T16:19:43;18.20;99.90
6206;DHT22;3136;48.788;9.772;2022-10-16T16:22:09;18.20;1.00
6206;DHT22;3136;48.788;9.772;2022-10-16T16:24:34;18.10;1.00
6206;DHT22;3136;48.788;9.772;2022-10-16T16:27:00;18.10;1.00
6206;DHT22;3136;48.788;9.772;2022-10-16T16:29:25;18.00;1.00
6206;DHT22;3136;48.788;9.772;2022-10-16T16:31:51;18.10;1.00
6206;DHT22;3136;48.788;9.772;2022-10-16T16:34:26;17.80;3.00
6206;DHT22;3136;48.788;9.772;2022-10-16T16:36:52;17.70;99.90
6206;DHT22;3136;48.788;9.772;2022-10-16T16:39:18;17.60;99.90
6206;DHT22;3136;48.788;9.772;2022-10-16T16:41:43;17.60;99.90
6206;DHT22;3136;48.788;9.772;2022-10-16T16:44:13;17.60;1.00
6206;DHT22;3136;48.788;9.772;2022-10-16T16:46:39;17.60;1.00
6206;DHT22;3136;48.788;9.772;2022-10-16T16:49:06;17.50;1.00
6206;DHT22;3136;48.788;9.772;2022-10-16T16:51:32;17.50;1.00
6206;DHT22;3136;48.788;9.772;2022-10-16T16:53:58;17.50;1.00
6206;DHT22;3136;48.788;9.772;2022-10-16T16:56:24;17.40;1.00
6206;DHT22;3136;48.788;9.772;2022-10-16T16:58:52;17.40;1.00
6206;DHT22;3136;48.788;9.772;2022-10-16T17:01:18;17.30;1.00
6206;DHT22;3136;48.788;9.772;2022-10-16T17:03:44;17.10;1.00
6206;DHT22;3136;48.788;9.772;2022-10-16T17:06:11;17.20;1.00
6206;DHT22;3136;48.788;9.772;2022-10-16T17:08:38;17.10;1.00
6206;DHT22;3136;48.788;9.772;2022-10-16T17:11:04;17.10;1.00
6206;DHT22;3136;48.788;9.772;2022-10-16T17:13:32;17.10;1.00
6206;DHT22;3136;48.788;9.772;2022-10-16T17:16:03;17.10;1.00
6206;DHT22;3136;48.788;9.772;2022-10-16T17:18:29;17.10;1.00
6206;DHT22;3136;48.788;9.772;2022-10-16T17:20:58;17.00;1.00
6206;DHT22;3136;48.788;9.772;2022-10-16T17:23:24;17.00;1.00
6206;DHT22;3136;48.788;9.772;2022-10-16T17:25:50;16.90;1.00
6206;DHT22;3136;48.788;9.772;2022-10-16T17:28:15;16.80;1.00
6206;DHT22;3136;48.788;9.772;2022-10-16T17:30:41;16.70;1.00
6206;DHT22;3136;48.788;9.772;2022-10-16T17:33:08;16.70;1.00
6206;DHT22;3136;48.788;9.772;2022-10-16T17:35:43;16.60;1.00
6206;DHT22;3136;48.788;9.772;2022-10-16T17:38:10;16.50;1.00
6206;DHT22;3136;48.788;9.772;2022-10-16T17:40:36;16.60;1.00
6206;DHT22;3136;48.788;9.772;2022-10-16T17:43:03;16.50;1.00
6206;DHT22;3136;48.788;9.772;2022-10-16T17:45:28;16.50;1.00
6206;DHT22;3136;48.788;9.772;2022-10-16T17:47:54;16.50;1.00
6206;DHT22;3136;48.788;9.772;2022-10-16T17:50:20;16.40;1.00
6206;DHT22;3136;48.788;9.772;2022-10-16T17:52:46;16.40;1.00
6206;DHT22;3136;48.788;9.772;2022-10-16T17:55:11;16.30;1.00
6206;DHT22;3136;48.788;9.772;2022-10-16T17:57:37;16.30;1.00
6206;DHT22;3136;48.788;9.772;2022-10-16T18:00:04;16.30;1.00
6206;DHT22;3136;48.788;9.772;2022-10-16T18:02:30;16.20;1.00
6206;DHT22;3136;48.788;9.772;2022-10-16T18:04:56;16.10;1.00
6206;DHT22;3136;48.788;9.772;2022-10-16T18:07:21;16.10;1.00
6206;DHT22;3136;48.788;9.772;2022-10-16T18:09:47;16.00;1.00
6206;DHT22;3136;48.788;9.772;2022-10-16T18:12:13;15.90;1.00
6206;DHT22;3136;48.788;9.772;2022-10-16T18:14:39;15.90;1.00
6206;DHT22;3136;48.788;9.772;2022-10-16T18:17:04;15.80;1.00